Time;durP1;ratioP1;P1;durP2;ratioP2;P2;SDS_P1;SDS_P2;PMS_P1;PMS_P2;Temp;Humidity;BMP_temperature;BMP_pressure;BME280_temperature;BME280_humidity;BME280_pressure;Samples;Min_cycle;Max_cycle;Signal;HPM_P1;HPM_P2
2023/06/24 00:02:05;;;;;;;20.40;12.27;;;;;;;17.38;76.63;99115.63;4956666;28;20083;-75
2023/06/24 00:04:31;;;;;;;19.65;12.10;;;;;;;17.49;76.65;99117.28;4954511;28;20096;-76
2023/06/24 00:06:59;;;;;;;15.45;10.52;;;;;;;17.50;76.34;99121.69;4943311;28;20039;-75
2023/06/24 00:09:26;;;;;;;15.18;11.18;;;;;;;17.13;77.99;99120.91;4942264;29;20122;-75
2023/06/24 00:11:52;;;;;;;31.17;16.40;;;;;;;16.67;78.59;99121.72;4941883;28;20509;-76
2023/06/24 00:14:18;;;;;;;21.63;14.02;;;;;;;16.56;80.34;99121.66;4951173;28;20074;-75
2023/06/24 00:16:43;;;;;;;19.60;13.35;;;;;;;16.99;78.14;99114.34;4937316;29;20040;-76
2023/06/24 00:19:08;;;;;;;20.00;13.02;;;;;;;17.06;77.43;99109.47;4955687;28;20028;-75
2023/06/24 00:21:37;;;;;;;13.35;10.93;;;;;;;17.11;77.89;99117.66;4956195;28;20047;-76
2023/06/24 00:24:04;;;;;;;13.95;9.70;;;;;;;17.13;76.96;99123.63;4944668;29;20035;-76
2023/06/24 00:26:29;;;;;;;15.98;10.75;;;;;;;17.33;76.44;99126.50;4968452;28;20057;-76
2023/06/24 00:28:55;;;;;;;16.98;10.85;;;;;;;17.29;76.64;99125.38;4943575;29;20506;-75
2023/06/24 00:31:21;;;;;;;18.02;12.63;;;;;;;17.37;77.04;99119.41;4942832;28;20043;-75
2023/06/24 00:33:47;;;;;;;13.38;10.68;;;;;;;17.38;76.42;99118.34;4945888;29;20558;-73
2023/06/24 00:36:13;;;;;;;23.25;13.13;;;;;;;17.23;77.40;99120.97;4949605;29;20104;-73
2023/06/24 00:38:39;;;;;;;19.42;13.82;;;;;;;17.24;77.67;99117.19;4945790;29;20398;-74
2023/06/24 00:41:04;;;;;;;21.98;14.23;;;;;;;16.93;78.11;99110.75;4947746;29;20038;-74
2023/06/24 00:43:30;;;;;;;19.42;14.02;;;;;;;16.48;80.48;99119.38;4958766;28;20051;-75
2023/06/24 00:45:56;;;;;;;27.95;15.00;;;;;;;16.63;79.93;99104.28;4941357;28;20051;-76
2023/06/24 00:48:22;;;;;;;19.90;14.02;;;;;;;17.03;78.19;99104.56;4945922;28;20028;-74
2023/06/24 00:50:49;;;;;;;14.75;9.65;;;;;;;17.26;77.26;99115.03;4965408;28;20478;-75
2023/06/24 00:53:15;;;;;;;18.40;13.15;;;;;;;17.29;77.10;99103.59;4945415;28;20410;-76
2023/06/24 00:55:40;;;;;;;19.88;13.30;;;;;;;16.59;79.47;99110.25;4933586;29;20437;-76
2023/06/24 00:58:06;;;;;;;19.67;13.55;;;;;;;16.75;79.22;99099.47;4945578;28;20028;-75
2023/06/24 01:00:34;;;;;;;26.20;14.70;;;;;;;16.96;78.90;99103.97;4949181;29;20300;-75
2023/06/24 01:03:00;;;;;;;22.58;12.23;;;;;;;17.02;78.03;99092.00;4944944;28;20024;-75
2023/06/24 01:05:26;;;;;;;16.20;11.57;;;;;;;17.20;76.67;99099.72;4949009;28;20455;-76
2023/06/24 01:07:55;;;;;;;15.63;11.27;;;;;;;17.15;76.18;99088.84;4944969;29;20098;-76
2023/06/24 01:10:22;;;;;;;18.40;10.40;;;;;;;17.44;75.79;99090.03;4918922;29;20642;-76
2023/06/24 01:12:48;;;;;;;24.30;12.63;;;;;;;17.08;76.61;99085.53;4943159;28;20034;-75
2023/06/24 01:15:13;;;;;;;18.85;11.07;;;;;;;17.05;76.95;99092.31;4954607;28;20039;-74
2023/06/24 01:17:50;;;;;;;19.25;11.73;;;;;;;17.57;75.51;99089.59;4921645;29;20552;-75
2023/06/24 01:20:29;;;;;;;19.27;11.13;;;;;;;17.35;76.79;99091.63;4953405;28;20043;-77
2023/06/24 01:23:21;;;;;;;19.45;10.98;;;;;;;17.06;77.72;99093.16;4953148;28;20063;-75
2023/06/24 01:26:22;;;;;;;14.98;11.07;;;;;;;17.32;76.81;99089.44;4959192;28;20081;-76
2023/06/24 01:29:13;;;;;;;20.15;10.20;;;;;;;17.13;77.48;99082.81;4925295;29;20041;-76
2023/06/24 01:31:51;;;;;;;22.02;10.80;;;;;;;17.07;77.55;99075.72;4921415;29;20474;-76
2023/06/24 01:34:26;;;;;;;19.38;10.57;;;;;;;17.31;76.56;99063.31;4941158;29;20513;-76
2023/06/24 01:37:04;;;;;;;18.75;10.23;;;;;;;17.46;76.12;99070.69;4956771;28;20095;-75
2023/06/24 01:39:32;;;;;;;18.45;10.50;;;;;;;17.37;76.73;99067.69;4951330;29;20424;-76
2023/06/24 01:42:02;;;;;;;19.38;10.13;;;;;;;17.48;76.50;99063.91;4942557;29;20027;-75
2023/06/24 01:44:29;;;;;;;21.88;10.43;;;;;;;17.56;75.89;99068.03;4939896;28;20051;-76
2023/06/24 01:46:57;;;;;;;25.15;11.15;;;;;;;17.32;76.61;99059.50;4943929;28;20114;-75
2023/06/24 01:49:23;;;;;;;27.08;11.18;;;;;;;17.00;77.49;99058.81;4946880;29;20043;-75
2023/06/24 01:51:49;;;;;;;23.77;12.77;;;;;;;16.77;78.21;99056.50;4942993;29;20110;-75
2023/06/24 01:54:19;;;;;;;18.92;11.02;;;;;;;17.00;78.05;99046.03;4937009;28;20414;-75
2023/06/24 01:56:45;;;;;;;31.70;15.45;;;;;;;16.24;80.97;99049.31;4958859;28;20025;-75
2023/06/24 01:59:11;;;;;;;18.05;13.27;;;;;;;16.38;80.44;99048.59;4939835;29;20129;-74
2023/06/24 02:01:38;;;;;;;22.00;12.73;;;;;;;16.43;80.57;99043.19;4952683;28;20035;-75
2023/06/24 02:04:07;;;;;;;25.48;15.13;;;;;;;16.53;80.22;99042.47;4953285;28;20090;-76
2023/06/24 02:06:32;;;;;;;28.90;14.13;;;;;;;16.74;79.13;99041.53;4952583;28;20027;-75
2023/06/24 02:09:01;;;;;;;18.13;12.27;;;;;;;16.62;78.61;99037.38;4936628;29;20505;-76
2023/06/24 02:11:28;;;;;;;16.98;10.95;;;;;;;16.80;77.29;99048.66;4968380;28;20038;-76
2023/06/24 02:13:55;;;;;;;17.30;10.82;;;;;;;16.69;78.13;99048.81;4952410;28;20481;-76
2023/06/24 02:16:21;;;;;;;20.70;12.13;;;;;;;16.54;78.24;99042.25;4949192;28;20028;-75
2023/06/24 02:18:47;;;;;;;20.77;11.88;;;;;;;16.73;77.62;99056.22;4951583;29;20393;-75
2023/06/24 02:21:14;;;;;;;18.38;11.60;;;;;;;16.88;77.37;99053.56;4952326;28;20039;-75
2023/06/24 02:23:39;;;;;;;19.65;11.98;;;;;;;16.97;76.17;99051.16;4936159;29;20046;-76
2023/06/24 02:26:06;;;;;;;12.82;10.00;;;;;;;16.86;76.35;99052.19;4936489;29;20035;-75
2023/06/24 02:28:32;;;;;;;14.15;10.63;;;;;;;16.53;77.33;99046.03;4952383;28;20090;-76
2023/06/24 02:30:58;;;;;;;16.88;10.52;;;;;;;16.64;76.26;99046.09;4968397;28;20027;-75
2023/06/24 02:33:23;;;;;;;19.52;10.73;;;;;;;16.39;76.59;99043.97;4962821;28;20082;-75
2023/06/24 02:35:49;;;;;;;14.52;10.63;;;;;;;16.38;77.62;99037.72;4933085;29;20028;-74
2023/06/24 02:38:15;;;;;;;17.08;10.73;;;;;;;16.36;77.90;99037.16;4967284;28;20050;-76
2023/06/24 02:40:43;;;;;;;19.73;12.02;;;;;;;16.15;78.55;99043.53;4940808;28;20394;-77
2023/06/24 02:43:08;;;;;;;16.27;10.35;;;;;;;16.31;77.11;99042.56;4961908;28;20071;-76
2023/06/24 02:45:35;;;;;;;16.23;10.80;;;;;;;16.31;77.39;99042.56;4949090;29;20111;-75
2023/06/24 02:48:02;;;;;;;15.63;11.02;;;;;;;16.64;76.26;99055.06;4933560;29;20167;-76
2023/06/24 02:50:28;;;;;;;16.60;11.20;;;;;;;16.49;75.68;99053.03;4933652;29;20020;-76
2023/06/24 02:52:54;;;;;;;17.75;11.68;;;;;;;16.56;75.88;99050.94;4938537;29;20445;-76
2023/06/24 02:55:23;;;;;;;16.77;10.93;;;;;;;16.31;77.02;99053.44;4949380;28;20031;-76
2023/06/24 02:57:53;;;;;;;22.33;10.52;;;;;;;16.54;75.86;99050.41;4937022;29;20122;-75
2023/06/24 03:00:43;;;;;;;18.25;9.65;;;;;;;16.46;75.76;99048.13;4952287;28;20035;-75
2023/06/24 03:03:08;;;;;;;17.17;10.75;;;;;;;16.40;75.28;99054.63;4933112;29;20482;-76
2023/06/24 03:05:37;;;;;;;16.58;9.82;;;;;;;16.41;74.93;99064.41;4936456;29;20033;-76
2023/06/24 03:08:03;;;;;;;22.92;11.98;;;;;;;16.07;75.85;99063.03;4949080;28;20117;-76
2023/06/24 03:10:29;;;;;;;18.60;10.65;;;;;;;16.06;75.95;99061.38;4917239;29;20036;-75
2023/06/24 03:12:56;;;;;;;15.73;10.55;;;;;;;16.20;75.60;99072.63;4932800;29;20134;-73
2023/06/24 03:15:29;;;;;;;17.30;11.68;;;;;;;16.05;75.84;99070.63;4937725;29;20090;-75
2023/06/24 03:17:56;;;;;;;14.52;10.55;;;;;;;15.70;77.13;99075.72;4936430;29;20032;-74
2023/06/24 03:20:21;;;;;;;11.75;9.30;;;;;;;16.05;75.93;99073.34;4934735;28;20608;-74
2023/06/24 03:22:48;;;;;;;12.98;8.80;;;;;;;16.10;75.12;99078.84;4951741;28;20039;-74
2023/06/24 03:25:15;;;;;;;13.63;9.60;;;;;;;16.13;74.74;99072.84;4952866;28;20049;-74
2023/06/24 03:27:41;;;;;;;15.35;9.98;;;;;;;15.97;75.45;99073.81;4936324;29;20106;-75
2023/06/24 03:30:08;;;;;;;12.43;8.60;;;;;;;16.12;74.95;99071.25;4921052;29;20031;-76
2023/06/24 03:32:36;;;;;;;13.52;9.32;;;;;;;16.14;74.43;99074.50;4948459;29;20501;-75
2023/06/24 03:35:03;;;;;;;12.98;8.45;;;;;;;16.17;74.94;99074.00;4949780;28;20058;-75
2023/06/24 03:37:29;;;;;;;17.13;9.15;;;;;;;16.00;74.89;99081.44;4956814;29;20058;-76
2023/06/24 03:39:56;;;;;;;10.93;9.15;;;;;;;16.14;74.93;99090.81;4956161;28;20470;-77
2023/06/24 03:42:21;;;;;;;9.38;8.40;;;;;;;16.03;75.22;99089.09;4924499;29;20067;-76
2023/06/24 03:44:47;;;;;;;12.23;9.02;;;;;;;16.03;75.29;99089.09;4941353;29;20028;-78
2023/06/24 03:47:12;;;;;;;12.25;7.80;;;;;;;16.27;74.86;99093.09;4947508;29;20048;-74
2023/06/24 03:49:38;;;;;;;9.65;7.88;;;;;;;16.25;74.66;99081.66;4935899;29;20051;-77
2023/06/24 03:52:08;;;;;;;15.10;9.10;;;;;;;16.35;74.29;99092.63;4948271;29;20031;-77
2023/06/24 03:54:34;;;;;;;14.18;8.10;;;;;;;16.31;75.07;99107.00;4943838;29;20062;-76
2023/06/24 03:56:59;;;;;;;10.43;8.20;;;;;;;16.33;74.96;99108.38;4955288;29;20065;-75
2023/06/24 03:59:25;;;;;;;12.85;8.95;;;;;;;16.37;74.51;99104.06;4942087;29;20039;-76
2023/06/24 04:01:53;;;;;;;11.27;8.88;;;;;;;16.52;74.50;99103.41;4957210;28;20035;-77
2023/06/24 04:04:19;;;;;;;12.45;9.02;;;;;;;16.51;74.46;99124.34;4920823;29;20035;-75
2023/06/24 04:06:45;;;;;;;14.07;9.20;;;;;;;16.57;74.61;99114.28;4936870;29;20034;-77
2023/06/24 04:09:12;;;;;;;11.07;9.02;;;;;;;16.50;74.74;99106.34;4955572;29;20121;-76
2023/06/24 04:11:38;;;;;;;16.70;9.80;;;;;;;16.47;74.91;99109.59;4970034;28;20035;-78
2023/06/24 04:14:06;;;;;;;16.10;10.30;;;;;;;16.19;75.94;99114.50;4939941;29;20035;-77
2023/06/24 04:16:32;;;;;;;11.30;8.30;;;;;;;16.09;76.61;99120.66;4964512;28;20078;-76
2023/06/24 04:18:57;;;;;;;10.93;9.93;;;;;;;15.40;78.75;99116.06;4948541;28;20040;-77
2023/06/24 04:21:23;;;;;;;8.35;7.60;;;;;;;16.06;76.52;99126.59;4939907;29;20485;-77
2023/06/24 04:23:50;;;;;;;13.43;8.60;;;;;;;15.62;78.07;99125.03;4956934;28;20106;-78
2023/06/24 04:26:16;;;;;;;9.05;8.25;;;;;;;16.22;76.40;99125.66;4944631;28;20027;-78
2023/06/24 04:28:41;;;;;;;11.20;9.23;;;;;;;16.67;75.01;99140.75;4929155;29;20027;-78
2023/06/24 04:31:07;;;;;;;13.05;11.18;;;;;;;16.02;77.43;99136.34;4959823;28;20445;-77
2023/06/24 04:33:32;;;;;;;11.38;9.35;;;;;;;16.82;74.90;99138.16;4954185;29;20054;-75
2023/06/24 04:35:59;;;;;;;14.60;11.00;;;;;;;15.82;79.05;99136.94;4957322;29;20070;-77
2023/06/24 04:38:24;;;;;;;13.52;11.98;;;;;;;15.60;79.67;99148.91;4954797;28;20052;-77
2023/06/24 04:40:50;;;;;;;14.65;12.20;;;;;;;15.47;80.06;99139.28;4948555;29;20446;-78
2023/06/24 04:43:16;;;;;;;17.05;12.30;;;;;;;15.60;80.66;99143.47;4950444;28;20070;-77
2023/06/24 04:45:41;;;;;;;19.20;13.70;;;;;;;16.39;77.99;99136.41;4950422;29;20038;-76
2023/06/24 04:48:07;;;;;;;15.10;12.73;;;;;;;16.41;78.12;99134.25;4942785;29;20031;-74
2023/06/24 04:50:32;;;;;;;14.48;11.23;;;;;;;16.40;78.69;99138.91;4943255;28;20510;-77
2023/06/24 04:52:57;;;;;;;17.88;13.68;;;;;;;16.59;78.45;99142.88;4958077;28;20050;-75
2023/06/24 04:55:23;;;;;;;14.60;12.30;;;;;;;16.57;78.68;99145.03;4969923;28;20027;-74
2023/06/24 04:57:49;;;;;;;20.75;13.10;;;;;;;16.49;79.52;99150.94;4955469;28;20039;-78
2023/06/24 05:00:14;;;;;;;16.75;13.27;;;;;;;16.61;79.26;99163.56;4939954;29;20131;-77
2023/06/24 05:02:40;;;;;;;18.10;13.45;;;;;;;16.36;81.42;99164.16;4949440;28;20047;-77
2023/06/24 05:05:05;;;;;;;19.40;15.05;;;;;;;16.29;81.63;99161.63;4938754;29;20058;-77
2023/06/24 05:07:31;;;;;;;20.15;13.70;;;;;;;16.58;80.47;99143.97;4945259;29;20042;-77
2023/06/24 05:09:56;;;;;;;23.02;14.30;;;;;;;16.28;82.33;99156.44;4958074;28;20023;-76
2023/06/24 05:12:21;;;;;;;17.50;14.18;;;;;;;16.89;80.86;99152.34;4941817;29;20031;-77
2023/06/24 05:14:51;;;;;;;21.45;12.65;;;;;;;17.71;77.88;99160.72;4955101;28;20478;-77
2023/06/24 05:17:17;;;;;;;16.75;13.02;;;;;;;17.75;77.04;99162.66;4954893;28;20058;-77
2023/06/24 05:19:42;;;;;;;16.80;13.55;;;;;;;17.71;78.13;99164.25;4950538;29;20036;-78
2023/06/24 05:22:09;;;;;;;19.23;14.18;;;;;;;18.02;77.71;99161.66;4956541;28;20043;-77
2023/06/24 05:24:38;;;;;;;15.85;12.57;;;;;;;18.03;77.31;99166.81;4920182;29;20032;-77
2023/06/24 05:27:05;;;;;;;19.02;13.05;;;;;;;18.12;76.68;99172.56;4954282;28;20513;-76
2023/06/24 05:29:31;;;;;;;19.63;13.25;;;;;;;18.21;77.32;99166.31;4940388;28;20488;-76
2023/06/24 05:31:56;;;;;;;17.85;12.68;;;;;;;18.10;78.98;99159.22;4950264;28;20110;-76
2023/06/24 05:34:21;;;;;;;14.23;12.55;;;;;;;18.11;78.06;99166.28;4963369;28;20114;-76
2023/06/24 05:36:47;;;;;;;15.63;12.65;;;;;;;18.27;77.31;99170.72;4953303;28;20047;-76
2023/06/24 05:39:13;;;;;;;17.70;12.75;;;;;;;18.29;78.16;99170.44;4956513;28;20131;-76
2023/06/24 05:41:39;;;;;;;16.65;12.40;;;;;;;18.39;77.72;99173.19;4940144;29;20067;-76
2023/06/24 05:44:08;;;;;;;16.42;13.23;;;;;;;18.80;77.51;99168.56;4936897;29;20027;-76
2023/06/24 05:46:34;;;;;;;16.00;12.82;;;;;;;18.21;77.11;99170.94;4953159;28;20093;-75
2023/06/24 05:48:59;;;;;;;16.30;13.10;;;;;;;18.43;77.53;99179.72;4976891;28;20018;-76
2023/06/24 05:51:25;;;;;;;16.52;12.50;;;;;;;18.43;75.84;99163.34;4946395;28;20378;-75
2023/06/24 05:53:50;;;;;;;14.80;12.15;;;;;;;18.76;74.70;99162.84;4949961;29;20024;-76
2023/06/24 05:56:15;;;;;;;15.18;11.50;;;;;;;19.01;74.82;99159.28;4951151;28;20767;-75
2023/06/24 05:58:41;;;;;;;15.40;11.63;;;;;;;18.80;75.40;99166.66;4956343;28;20051;-76
2023/06/24 06:01:07;;;;;;;12.50;11.00;;;;;;;19.42;73.55;99154.56;4948248;29;20055;-77
2023/06/24 06:03:32;;;;;;;12.48;11.18;;;;;;;19.18;74.68;99166.06;4961914;28;20862;-73
2023/06/24 06:05:58;;;;;;;12.55;10.50;;;;;;;19.86;71.48;99156.28;4962502;28;20036;-73
2023/06/24 06:08:23;;;;;;;12.60;10.23;;;;;;;19.44;73.08;99158.63;4933550;29;20042;-73
2023/06/24 06:10:48;;;;;;;11.05;9.90;;;;;;;19.87;71.37;99163.41;4934640;29;20087;-73
2023/06/24 06:13:14;;;;;;;12.10;10.13;;;;;;;19.33;72.57;99162.47;4934132;29;20115;-73
2023/06/24 06:15:39;;;;;;;11.93;9.70;;;;;;;18.81;72.36;99157.38;4955471;28;20046;-73
2023/06/24 06:18:04;;;;;;;11.57;9.32;;;;;;;18.92;71.84;99172.66;4953634;28;20035;-73
2023/06/24 06:20:30;;;;;;;10.40;9.38;;;;;;;18.90;72.05;99174.88;4953462;28;20050;-73
2023/06/24 06:22:55;;;;;;;10.50;9.32;;;;;;;18.94;71.24;99165.03;4968489;28;20034;-73
2023/06/24 06:25:21;;;;;;;11.23;9.60;;;;;;;19.08;72.75;99160.63;4962873;28;20066;-77
2023/06/24 06:27:46;;;;;;;10.35;8.63;;;;;;;19.38;70.26;99169.88;4944333;29;20055;-74
2023/06/24 06:30:13;;;;;;;10.10;8.80;;;;;;;19.71;67.35;99163.75;4954770;28;20035;-75
2023/06/24 06:32:38;;;;;;;10.40;8.73;;;;;;;19.09;70.49;99167.72;4939996;29;20030;-76
2023/06/24 06:35:04;;;;;;;9.70;8.60;;;;;;;19.36;70.37;99166.59;4933875;29;20039;-74
2023/06/24 06:37:29;;;;;;;10.80;8.20;;;;;;;19.80;68.94;99151.13;4949444;29;20506;-74
2023/06/24 06:39:54;;;;;;;10.25;8.80;;;;;;;20.13;68.29;99160.53;4934472;29;20506;-74
2023/06/24 06:42:20;;;;;;;10.80;8.32;;;;;;;19.97;68.95;99157.88;4933714;29;20031;-74
2023/06/24 06:44:45;;;;;;;10.77;7.95;;;;;;;19.99;68.27;99160.34;4938917;29;20043;-72
2023/06/24 06:47:10;;;;;;;9.35;8.15;;;;;;;20.58;67.53;99155.56;4941118;29;20020;-73
2023/06/24 06:49:36;;;;;;;12.60;8.77;;;;;;;19.78;68.85;99161.53;4949789;29;20398;-73
2023/06/24 06:52:01;;;;;;;10.38;8.50;;;;;;;20.37;66.73;99154.13;4950295;29;20031;-73
2023/06/24 06:54:26;;;;;;;11.25;8.40;;;;;;;20.56;66.96;99149.56;4935019;29;20159;-73
2023/06/24 06:56:52;;;;;;;8.68;7.28;;;;;;;20.44;68.21;99151.06;4949203;29;20034;-73
2023/06/24 06:59:17;;;;;;;7.88;6.90;;;;;;;20.41;66.94;99146.97;4934128;29;20040;-76
2023/06/24 07:01:43;;;;;;;9.27;7.47;;;;;;;20.34;66.88;99146.47;4960323;28;20032;-76
2023/06/24 07:04:08;;;;;;;7.25;6.55;;;;;;;20.80;65.14;99137.88;4955345;28;20046;-76
2023/06/24 07:06:34;;;;;;;8.57;7.03;;;;;;;20.76;67.26;99142.28;4961086;28;20036;-76
2023/06/24 07:08:59;;;;;;;7.43;6.72;;;;;;;20.49;63.33;99146.34;4965755;28;20163;-76
2023/06/24 07:11:24;;;;;;;7.80;6.60;;;;;;;20.07;65.94;99146.06;4944481;29;20031;-76
2023/06/24 07:13:51;;;;;;;11.18;6.97;;;;;;;20.72;65.44;99141.25;4954655;28;20049;-76
2023/06/24 07:16:17;;;;;;;9.30;6.95;;;;;;;20.97;64.29;99144.56;4955718;28;20478;-76
2023/06/24 07:18:42;;;;;;;11.35;6.40;;;;;;;20.43;64.59;99144.75;4959196;28;20302;-76
2023/06/24 07:21:08;;;;;;;8.32;6.93;;;;;;;21.06;63.21;99142.88;4956030;28;20114;-76
2023/06/24 07:23:33;;;;;;;8.93;7.10;;;;;;;20.82;63.86;99146.63;4939335;28;20035;-76
2023/06/24 07:25:59;;;;;;;7.97;6.95;;;;;;;21.19;64.17;99146.84;4962440;28;20038;-76
2023/06/24 07:28:24;;;;;;;9.88;6.90;;;;;;;20.77;64.23;99157.63;4951799;29;20071;-76
2023/06/24 07:30:50;;;;;;;7.45;6.70;;;;;;;20.30;64.30;99150.06;4932305;29;20027;-76
2023/06/24 07:33:15;;;;;;;17.58;7.25;;;;;;;20.83;64.02;99154.56;4967866;28;20494;-77
2023/06/24 07:35:40;;;;;;;7.93;6.25;;;;;;;21.02;63.23;99151.91;4937178;29;20078;-76
2023/06/24 07:38:06;;;;;;;8.10;6.85;;;;;;;21.04;62.50;99149.69;4970303;28;20035;-76
2023/06/24 07:40:31;;;;;;;12.65;7.50;;;;;;;21.48;62.25;99158.56;4946385;28;20397;-76
2023/06/24 07:42:57;;;;;;;9.65;8.00;;;;;;;20.80;62.99;99159.78;4948947;29;20044;-76
2023/06/24 07:45:23;;;;;;;9.70;7.20;;;;;;;21.34;61.59;99149.41;4943227;29;20496;-76
2023/06/24 07:47:48;;;;;;;8.88;7.80;;;;;;;21.29;62.10;99153.03;4964665;28;20405;-76
2023/06/24 07:50:14;;;;;;;8.60;6.93;;;;;;;21.52;62.38;99156.09;4951918;28;20032;-76
2023/06/24 07:52:39;;;;;;;9.65;7.70;;;;;;;21.52;62.00;99156.88;4945765;29;20047;-76
2023/06/24 07:55:05;;;;;;;8.57;7.25;;;;;;;21.35;61.51;99148.31;4951039;29;20030;-76
2023/06/24 07:57:31;;;;;;;9.27;7.38;;;;;;;21.92;62.56;99161.91;4938477;29;20502;-77
2023/06/24 07:59:56;;;;;;;10.60;7.03;;;;;;;21.28;62.32;99156.06;4970015;28;20057;-76
2023/06/24 08:02:23;;;;;;;8.90;7.38;;;;;;;22.53;59.61;99144.53;4951886;28;20040;-76
2023/06/24 08:04:49;;;;;;;9.25;7.47;;;;;;;22.04;60.76;99158.72;4959367;28;20119;-79
2023/06/24 08:07:15;;;;;;;9.13;7.35;;;;;;;22.44;59.53;99140.84;4953450;29;20118;-76
2023/06/24 08:09:40;;;;;;;9.32;7.53;;;;;;;23.17;56.94;99141.81;4959886;28;20474;-76
2023/06/24 08:12:06;;;;;;;11.15;7.80;;;;;;;22.25;60.51;99146.34;4949977;28;20063;-77
2023/06/24 08:14:31;;;;;;;10.38;7.63;;;;;;;22.28;59.57;99142.19;4932538;29;20512;-76
2023/06/24 08:16:56;;;;;;;9.73;7.25;;;;;;;22.22;59.38;99154.38;4950306;29;20417;-77
2023/06/24 08:19:22;;;;;;;9.07;7.85;;;;;;;21.70;60.58;99147.09;4954029;29;20024;-76
2023/06/24 08:21:47;;;;;;;9.43;7.68;;;;;;;21.96;58.62;99149.22;4945896;28;20102;-75
2023/06/24 08:24:13;;;;;;;8.75;6.90;;;;;;;22.71;56.54;99151.94;4937234;29;20118;-76
2023/06/24 08:26:38;;;;;;;7.90;6.90;;;;;;;22.79;58.25;99143.03;4937365;29;20040;-76
2023/06/24 08:29:03;;;;;;;8.13;7.32;;;;;;;22.22;56.78;99148.88;4943931;29;20385;-76
2023/06/24 08:31:29;;;;;;;8.00;6.80;;;;;;;23.41;57.51;99133.38;4952280;28;20047;-76
2023/06/24 08:33:55;;;;;;;7.65;6.85;;;;;;;22.14;58.70;99146.78;4968508;28;20119;-76
2023/06/24 08:36:23;;;;;;;9.77;7.30;;;;;;;22.66;58.44;99141.06;4968809;28;20400;-76
2023/06/24 08:38:49;;;;;;;9.73;6.55;;;;;;;23.15;57.03;99151.47;4968494;28;20106;-76
2023/06/24 08:41:14;;;;;;;9.65;7.20;;;;;;;23.41;56.84;99146.34;4956113;28;20114;-77
2023/06/24 08:43:40;;;;;;;9.55;7.32;;;;;;;22.75;55.54;99150.25;4959077;28;20115;-76
2023/06/24 08:46:06;;;;;;;7.68;6.88;;;;;;;23.75;53.90;99146.75;4946307;29;20083;-76
2023/06/24 08:48:32;;;;;;;8.57;6.85;;;;;;;23.93;54.53;99145.78;4942641;29;20020;-76
2023/06/24 08:51:00;;;;;;;9.90;8.30;;;;;;;22.99;56.04;99148.16;4939663;28;20401;-76
2023/06/24 08:53:26;;;;;;;10.30;7.10;;;;;;;23.68;54.85;99149.91;4951977;28;20034;-76
2023/06/24 08:55:53;;;;;;;28.45;8.25;;;;;;;23.49;53.39;99137.38;4952404;29;20039;-76
2023/06/24 08:58:19;;;;;;;7.53;6.03;;;;;;;23.74;51.23;99136.84;4968178;28;20024;-76
2023/06/24 09:00:44;;;;;;;8.25;6.55;;;;;;;22.79;55.17;99140.28;4948881;28;20050;-76
2023/06/24 09:03:10;;;;;;;7.68;6.90;;;;;;;23.26;55.17;99137.25;4932984;29;20054;-75
2023/06/24 09:05:35;;;;;;;6.97;5.30;;;;;;;23.28;50.19;99140.50;4935805;29;20031;-76
2023/06/24 09:08:00;;;;;;;6.65;4.85;;;;;;;23.41;49.29;99146.34;4952069;28;20031;-76
2023/06/24 09:10:33;;;;;;;8.48;7.13;;;;;;;23.18;51.47;99148.09;4950721;28;20083;-76
2023/06/24 09:13:05;;;;;;;8.20;5.93;;;;;;;23.29;50.47;99152.31;4942923;29;20035;-76
2023/06/24 09:15:35;;;;;;;6.38;5.63;;;;;;;23.92;47.89;99138.69;4937835;28;20087;-76
2023/06/24 09:18:00;;;;;;;5.57;4.68;;;;;;;24.21;47.54;99130.88;4949892;29;20034;-77
2023/06/24 09:20:27;;;;;;;6.93;4.97;;;;;;;24.80;48.95;99132.50;4962439;28;20027;-76
2023/06/24 09:22:57;;;;;;;6.38;5.40;;;;;;;24.47;47.14;99129.16;4959972;28;20065;-76
2023/06/24 09:25:23;;;;;;;7.22;5.40;;;;;;;24.51;49.50;99135.66;4951887;28;20039;-77
2023/06/24 09:27:51;;;;;;;7.38;5.03;;;;;;;24.62;48.28;99115.00;4951920;29;20046;-76
2023/06/24 09:30:21;;;;;;;6.38;5.28;;;;;;;23.88;48.91;99132.13;4938952;28;20385;-76
2023/06/24 09:32:48;;;;;;;6.38;4.60;;;;;;;23.94;48.78;99130.91;4938248;28;20507;-77
2023/06/24 09:35:14;;;;;;;6.65;5.15;;;;;;;24.15;48.43;99123.88;4932361;29;20044;-76
2023/06/24 09:37:39;;;;;;;6.93;4.75;;;;;;;24.31;47.61;99108.63;4942261;29;20027;-76
2023/06/24 09:40:06;;;;;;;4.38;3.95;;;;;;;25.20;47.43;99114.09;4944818;29;20034;-77
2023/06/24 09:42:31;;;;;;;6.68;5.15;;;;;;;24.54;45.89;99117.69;4961391;28;20090;-76
2023/06/24 09:44:57;;;;;;;6.22;4.60;;;;;;;24.55;48.07;99114.63;4951096;28;20043;-77
2023/06/24 09:47:27;;;;;;;5.85;4.82;;;;;;;25.45;48.05;99105.13;4951162;29;20098;-76
2023/06/24 09:49:53;;;;;;;6.35;5.18;;;;;;;24.32;48.46;99110.22;4939814;28;20397;-76
2023/06/24 09:52:19;;;;;;;5.93;4.68;;;;;;;25.54;46.87;99103.19;4953365;28;20482;-76
2023/06/24 09:54:46;;;;;;;7.20;5.10;;;;;;;25.70;46.57;99093.34;4954911;28;20039;-76
2023/06/24 09:57:13;;;;;;;6.85;5.35;;;;;;;25.12;46.78;99096.38;4935164;29;20038;-76
2023/06/24 09:59:39;;;;;;;5.65;4.78;;;;;;;24.65;48.77;99086.00;4943470;29;20498;-76
2023/06/24 10:02:07;;;;;;;5.95;4.75;;;;;;;24.18;47.25;99098.44;4962109;28;20027;-77
2023/06/24 10:04:32;;;;;;;7.65;4.97;;;;;;;25.29;46.07;99087.34;4959067;28;20575;-76
2023/06/24 10:06:59;;;;;;;6.65;4.25;;;;;;;24.69;47.52;99093.31;4947870;29;20028;-76
2023/06/24 10:09:24;;;;;;;5.32;4.68;;;;;;;24.76;46.09;99089.34;4939378;29;20158;-77
2023/06/24 10:11:49;;;;;;;7.35;4.90;;;;;;;24.03;47.68;99093.28;4948834;29;20114;-77
2023/06/24 10:14:15;;;;;;;5.93;4.68;;;;;;;25.76;45.60;99082.97;4944543;28;20505;-77
2023/06/24 10:16:42;;;;;;;6.68;4.28;;;;;;;25.23;45.07;99078.41;4947935;29;20074;-77
2023/06/24 10:19:07;;;;;;;4.72;4.10;;;;;;;25.85;45.92;99086.56;4939841;29;20066;-77
2023/06/24 10:21:52;;;;;;;5.38;4.28;;;;;;;26.23;44.29;99081.25;4934750;29;20560;-77
2023/06/24 10:24:32;;;;;;;6.88;4.03;;;;;;;26.17;42.58;99077.03;4940201;29;20439;-77
2023/06/24 10:27:22;;;;;;;5.45;4.50;;;;;;;26.71;41.83;99065.28;4950435;29;20050;-77
2023/06/24 10:29:49;;;;;;;5.15;4.65;;;;;;;25.54;43.08;99069.28;4935480;29;20115;-76
2023/06/24 10:32:15;;;;;;;6.15;4.30;;;;;;;26.04;43.21;99068.53;4940097;29;20417;-76
2023/06/24 10:34:42;;;;;;;5.35;4.47;;;;;;;26.67;43.84;99058.78;4935084;29;20035;-76
2023/06/24 10:37:07;;;;;;;5.30;4.25;;;;;;;26.83;42.01;99057.13;4931875;29;20545;-76
2023/06/24 10:39:37;;;;;;;6.43;4.10;;;;;;;26.27;42.02;99055.44;4944046;29;20043;-77
2023/06/24 10:42:28;;;;;;;4.90;4.40;;;;;;;26.88;42.73;99054.19;4972005;28;20323;-77
2023/06/24 10:44:55;;;;;;;4.05;3.65;;;;;;;26.59;43.75;99046.59;4962799;28;20492;-76
2023/06/24 10:47:22;;;;;;;5.75;4.10;;;;;;;26.44;41.55;99060.13;4949476;28;20077;-76
2023/06/24 10:49:48;;;;;;;4.25;3.85;;;;;;;26.38;40.78;99061.41;4943387;28;20027;-76
2023/06/24 10:52:13;;;;;;;4.78;4.35;;;;;;;26.72;43.29;99050.31;4949912;28;20023;-77
2023/06/24 10:54:41;;;;;;;4.72;4.28;;;;;;;26.92;41.87;99027.50;4954260;28;20035;-77
2023/06/24 10:57:07;;;;;;;6.03;4.72;;;;;;;25.98;42.68;99041.41;4980616;28;20528;-76
2023/06/24 10:59:42;;;;;;;5.07;4.10;;;;;;;26.54;42.21;99027.41;4932052;29;20043;-77
2023/06/24 11:02:09;;;;;;;4.47;3.90;;;;;;;25.80;42.45;99043.38;4952172;29;20055;-75
2023/06/24 11:04:42;;;;;;;7.38;4.50;;;;;;;27.71;39.58;99024.00;4957455;28;20466;-77
2023/06/24 11:07:08;;;;;;;5.82;3.80;;;;;;;26.66;40.52;99023.97;4958338;28;20034;-76
2023/06/24 11:09:33;;;;;;;5.40;4.00;;;;;;;26.81;39.83;99020.72;4968874;28;20097;-76
2023/06/24 11:11:59;;;;;;;8.60;4.38;;;;;;;26.53;42.28;99019.47;4955217;28;20059;-77
2023/06/24 11:14:24;;;;;;;5.07;4.00;;;;;;;26.74;42.03;99026.75;4960885;28;20027;-77
2023/06/24 11:16:49;;;;;;;9.70;4.30;;;;;;;27.14;41.00;99021.69;4963979;28;20030;-77
2023/06/24 11:19:15;;;;;;;5.90;4.57;;;;;;;26.63;40.32;99019.09;4968760;28;20054;-76
2023/06/24 11:21:40;;;;;;;5.28;4.00;;;;;;;26.46;41.04;99025.50;4965001;28;20086;-77
2023/06/24 11:24:06;;;;;;;4.68;4.28;;;;;;;26.79;42.73;99014.72;4957268;28;20605;-77